Rogue River, Oregon
Current Conditions -  °F | °C
As of 6:56 PM on Friday 21 Nov 2014 (Local Time) from KSXT Reporting Station
Moderate Rain Moderate Rain  
Wind Chill: 38°   Ceiling: 100
Heat Index: 46°   Visibility: 0mi
Dew Point: 46°   Wind: 20mph
Humidity: 100%   Direction: 190°S
Pressure: 29.73"   Gusts: 31mph
Location:  42.44°N, 123.17°W
Report Text: KSXT 220256Z AUTO 19017G27KT M1/4SM RA FG VV001 08/08 A2973 RMK AO2 PK WND 18033/0208 RAB0157E06B24 SLP064 P0012 60013 T00780078 58020 $
Loading
Personal Weather Stations






























Interactive Weather Map New forecast layout! Learn more

10-Day Weather Forecast

Advertisements
Track Severe Weather on mobile